createdAt,value
2022-08-26T00:00:24.276Z,18.85
2022-08-26T00:02:57.718Z,18.88
2022-08-26T00:05:30.721Z,18.86
2022-08-26T00:08:03.598Z,18.85
2022-08-26T00:10:36.091Z,18.80
2022-08-26T00:13:11.006Z,18.80
2022-08-26T00:15:43.470Z,18.76
2022-08-26T00:18:21.936Z,18.73
2022-08-26T00:20:55.148Z,18.67
2022-08-26T00:23:28.870Z,18.60
2022-08-26T00:26:04.426Z,18.54
2022-08-26T00:28:38.455Z,18.53
2022-08-26T00:31:12.958Z,18.53
2022-08-26T00:33:45.671Z,18.53
2022-08-26T00:36:20.234Z,18.50
2022-08-26T00:38:53.018Z,18.46
2022-08-26T00:41:25.758Z,18.43
2022-08-26T00:43:59.874Z,18.41
2022-08-26T00:46:37.313Z,18.39
2022-08-26T00:49:13.772Z,18.36
2022-08-26T00:51:51.084Z,18.32
2022-08-26T00:54:27.399Z,18.31
2022-08-26T00:57:03.951Z,18.29
2022-08-26T00:59:38.927Z,18.29
2022-08-26T01:02:20.832Z,18.28
2022-08-26T01:04:56.591Z,18.26
2022-08-26T01:07:31.232Z,18.21
2022-08-26T01:10:08.333Z,18.19
2022-08-26T01:12:44.803Z,18.18
2022-08-26T01:15:22.149Z,18.15
2022-08-26T01:17:54.760Z,18.13
2022-08-26T01:20:35.496Z,18.12
2022-08-26T01:23:11.063Z,18.07
2022-08-26T01:25:47.465Z,18.06
2022-08-26T01:28:28.268Z,18.02
2022-08-26T01:31:25.060Z,17.99
2022-08-26T01:34:03.442Z,17.94
2022-08-26T01:36:37.437Z,17.87
2022-08-26T01:39:11.440Z,17.86
2022-08-26T01:41:46.349Z,17.85
2022-08-26T01:44:22.388Z,17.81
2022-08-26T01:46:57.264Z,17.76
2022-08-26T01:49:31.959Z,17.77
2022-08-26T01:52:09.028Z,17.76
2022-08-26T01:54:46.284Z,17.76
2022-08-26T01:57:21.085Z,17.72
2022-08-26T01:59:58.580Z,17.73
2022-08-26T02:02:31.090Z,17.69
2022-08-26T02:05:06.831Z,17.66
2022-08-26T02:07:40.706Z,17.64
2022-08-26T02:10:15.631Z,17.60
2022-08-26T02:12:49.016Z,17.59
2022-08-26T02:15:21.622Z,17.57
2022-08-26T02:17:54.554Z,17.55
2022-08-26T02:20:30.035Z,17.56
2022-08-26T02:23:02.729Z,17.56
2022-08-26T02:25:44.788Z,17.59
2022-08-26T02:28:18.019Z,17.60
2022-08-26T02:30:52.186Z,17.61
2022-08-26T02:33:24.600Z,17.60
2022-08-26T02:35:57.909Z,17.59
2022-08-26T02:38:30.538Z,17.60
2022-08-26T02:41:04.881Z,17.62
2022-08-26T02:43:40.357Z,17.63
2022-08-26T02:46:12.888Z,17.67
2022-08-26T02:48:54.174Z,17.72
2022-08-26T02:51:26.563Z,17.76
2022-08-26T02:53:58.917Z,17.78
2022-08-26T02:56:34.608Z,17.78
2022-08-26T02:59:08.144Z,17.75
2022-08-26T03:01:41.778Z,17.81
2022-08-26T03:04:14.262Z,17.80
2022-08-26T03:06:52.744Z,17.76
2022-08-26T03:09:25.629Z,17.78
2022-08-26T03:11:59.857Z,17.75
2022-08-26T03:14:32.193Z,17.79
2022-08-26T03:17:05.696Z,17.82
2022-08-26T03:19:38.729Z,17.84
2022-08-26T03:22:14.521Z,17.84
2022-08-26T03:24:47.832Z,17.84
2022-08-26T03:27:23.514Z,17.86
2022-08-26T03:30:15.134Z,17.85
2022-08-26T03:32:47.640Z,17.85
2022-08-26T03:35:20.596Z,17.84
2022-08-26T03:37:55.605Z,17.84
2022-08-26T03:40:29.011Z,17.83
2022-08-26T03:43:04.615Z,17.91
2022-08-26T03:45:37.876Z,17.93
2022-08-26T03:48:11.512Z,17.94
2022-08-26T03:50:44.685Z,18.00
2022-08-26T03:53:17.200Z,18.05
2022-08-26T03:55:53.205Z,18.08
2022-08-26T03:58:26.984Z,18.11
2022-08-26T04:01:00.018Z,18.13
2022-08-26T04:03:51.040Z,18.17
2022-08-26T04:06:23.637Z,18.21
2022-08-26T04:08:58.841Z,18.23
2022-08-26T04:11:34.237Z,18.27
2022-08-26T04:14:11.092Z,18.32
2022-08-26T04:16:43.977Z,18.38
2022-08-26T04:19:17.821Z,18.43
2022-08-26T04:21:53.308Z,18.46
2022-08-26T04:24:27.033Z,18.57
2022-08-26T04:27:02.599Z,18.65
2022-08-26T04:29:36.909Z,18.75
2022-08-26T04:32:11.484Z,18.86
2022-08-26T04:34:44.891Z,18.96
2022-08-26T04:37:17.475Z,19.07
2022-08-26T04:39:51.626Z,19.15
2022-08-26T04:42:26.242Z,19.25
2022-08-26T04:45:00.783Z,19.36
2022-08-26T04:47:33.212Z,19.45
2022-08-26T04:50:07.348Z,19.57
2022-08-26T04:52:40.367Z,19.78
2022-08-26T04:55:13.511Z,20.13
2022-08-26T04:57:47.205Z,20.52
2022-08-26T05:00:22.301Z,20.95
2022-08-26T05:02:55.218Z,21.35
2022-08-26T05:05:27.790Z,21.69
2022-08-26T05:08:00.476Z,22.05
2022-08-26T05:10:35.132Z,22.33
2022-08-26T05:13:10.961Z,22.61
2022-08-26T05:15:47.468Z,22.84
2022-08-26T05:18:22.841Z,23.03
2022-08-26T05:20:56.030Z,23.24
2022-08-26T05:23:32.789Z,23.37
2022-08-26T05:26:08.781Z,23.46
2022-08-26T05:28:44.154Z,23.58
2022-08-26T05:31:20.793Z,23.84
2022-08-26T05:33:57.725Z,23.96
2022-08-26T05:36:34.943Z,24.09
2022-08-26T05:39:10.671Z,24.21
2022-08-26T05:41:44.799Z,24.31
2022-08-26T05:44:19.067Z,24.49
2022-08-26T05:46:54.419Z,24.53
2022-08-26T05:49:27.020Z,24.62
2022-08-26T05:52:00.106Z,24.75
2022-08-26T05:54:34.953Z,24.69
2022-08-26T05:57:07.597Z,24.81
2022-08-26T05:59:40.152Z,24.82
2022-08-26T06:02:16.275Z,24.80
2022-08-26T06:04:50.516Z,24.72
2022-08-26T06:07:44.699Z,24.59
2022-08-26T06:10:33.196Z,24.50
2022-08-26T06:13:09.234Z,24.56
2022-08-26T06:15:47.886Z,24.54
2022-08-26T06:18:28.916Z,24.53
2022-08-26T06:21:12.186Z,24.53
2022-08-26T06:24:04.217Z,24.57
2022-08-26T06:26:37.189Z,24.63
2022-08-26T06:29:09.821Z,24.74
2022-08-26T06:31:42.314Z,24.84
2022-08-26T06:34:16.268Z,24.96
2022-08-26T06:36:49.765Z,25.04
2022-08-26T06:39:25.800Z,25.15
2022-08-26T06:41:59.131Z,25.25
2022-08-26T06:44:32.402Z,25.38
2022-08-26T06:47:05.642Z,25.47
2022-08-26T06:49:42.366Z,25.59
2022-08-26T06:52:22.499Z,25.69
2022-08-26T06:54:57.097Z,25.79
2022-08-26T06:57:32.946Z,25.90
2022-08-26T07:00:11.913Z,25.95
2022-08-26T07:02:46.222Z,26.01
2022-08-26T07:05:21.002Z,26.04
2022-08-26T07:07:53.713Z,26.03
2022-08-26T07:10:27.405Z,26.05
2022-08-26T07:13:00.985Z,26.04
2022-08-26T07:15:35.922Z,26.05
2022-08-26T07:18:09.354Z,26.06
2022-08-26T07:20:43.548Z,26.05
2022-08-26T07:23:16.070Z,26.05
2022-08-26T07:25:49.731Z,26.02
2022-08-26T07:28:23.047Z,25.99
2022-08-26T07:30:55.757Z,25.92
2022-08-26T07:33:29.696Z,25.94
2022-08-26T07:36:04.373Z,25.93
2022-08-26T07:38:38.123Z,25.95
2022-08-26T07:41:11.122Z,25.96
2022-08-26T07:43:44.092Z,25.99
2022-08-26T07:46:20.862Z,26.01
2022-08-26T07:49:00.195Z,25.98
2022-08-26T07:51:34.818Z,25.92
2022-08-26T07:54:07.818Z,25.83
2022-08-26T07:56:40.296Z,25.72
2022-08-26T07:59:18.018Z,25.63
2022-08-26T08:01:50.902Z,25.53
2022-08-26T08:04:26.546Z,25.50
2022-08-26T08:07:00.624Z,25.54
2022-08-26T08:09:33.324Z,25.63
2022-08-26T08:12:06.301Z,25.75
2022-08-26T08:14:38.732Z,25.86
2022-08-26T08:19:44.838Z,26.05
2022-08-26T08:22:19.748Z,26.13
2022-08-26T08:24:53.277Z,26.20
2022-08-26T08:27:26.001Z,26.25
2022-08-26T08:29:58.833Z,26.29
2022-08-26T08:32:31.357Z,26.33
2022-08-26T08:35:10.917Z,26.36
2022-08-26T08:37:46.203Z,26.39
2022-08-26T08:40:19.251Z,26.38
2022-08-26T08:42:56.802Z,26.39
2022-08-26T08:45:36.744Z,26.43
2022-08-26T08:48:16.372Z,26.46
2022-08-26T08:50:52.336Z,26.52
2022-08-26T08:53:31.916Z,26.58
2022-08-26T08:56:11.737Z,26.68
2022-08-26T08:58:52.815Z,26.76
2022-08-26T09:01:42.442Z,26.83
2022-08-26T09:04:32.879Z,26.91
2022-08-26T09:07:10.650Z,26.97
2022-08-26T09:09:47.437Z,27.03
2022-08-26T09:12:29.875Z,27.04
2022-08-26T09:15:06.129Z,27.12
2022-08-26T09:17:48.129Z,27.16
2022-08-26T09:20:29.153Z,27.16
2022-08-26T09:23:01.943Z,27.17
2022-08-26T09:25:46.160Z,27.18
2022-08-26T09:28:20.879Z,27.19
2022-08-26T09:31:12.032Z,27.21
2022-08-26T09:33:44.821Z,27.23
2022-08-26T09:36:24.822Z,27.23
2022-08-26T09:38:57.460Z,27.17
2022-08-26T09:41:33.608Z,27.22
2022-08-26T09:44:15.753Z,27.18
2022-08-26T09:46:55.687Z,27.16
2022-08-26T09:49:35.783Z,27.13
2022-08-26T09:52:14.402Z,27.12
2022-08-26T09:55:01.221Z,27.11
2022-08-26T09:57:46.645Z,27.16
2022-08-26T10:00:30.181Z,27.21
2022-08-26T10:03:04.771Z,27.28
2022-08-26T10:05:42.766Z,27.37
2022-08-26T10:08:24.953Z,27.50
2022-08-26T10:11:00.184Z,27.57
2022-08-26T10:13:37.785Z,27.60
2022-08-26T10:16:17.868Z,27.64
2022-08-26T10:18:59.934Z,27.75
2022-08-26T10:21:38.274Z,27.78
2022-08-26T10:24:12.228Z,27.78
2022-08-26T10:27:00.017Z,27.79
2022-08-26T10:29:39.975Z,27.78
2022-08-26T10:32:20.346Z,27.83
2022-08-26T10:34:52.903Z,27.83
2022-08-26T10:37:33.571Z,27.86
2022-08-26T10:40:11.332Z,27.88
2022-08-26T10:42:49.857Z,27.89
2022-08-26T10:45:27.509Z,27.90
2022-08-26T10:48:05.648Z,27.90
2022-08-26T10:50:41.766Z,27.92
2022-08-26T10:53:25.251Z,27.93
2022-08-26T10:56:03.088Z,27.93
2022-08-26T10:58:48.416Z,27.94
2022-08-26T11:01:43.104Z,27.94
2022-08-26T11:04:37.494Z,27.93
2022-08-26T11:07:32.841Z,27.92
2022-08-26T11:11:03.152Z,27.91
2022-08-26T11:14:09.087Z,27.92
2022-08-26T11:16:45.084Z,27.90
2022-08-26T11:20:00.817Z,27.91
2022-08-26T11:22:41.515Z,27.93
2022-08-26T11:25:21.245Z,27.90
2022-08-26T11:27:57.055Z,27.94
2022-08-26T11:30:57.003Z,27.92
2022-08-26T11:33:57.217Z,27.92
2022-08-26T11:36:57.385Z,27.90
2022-08-26T11:39:36.817Z,27.90
2022-08-26T11:42:22.118Z,27.93
2022-08-26T11:44:58.220Z,27.96
2022-08-26T11:47:32.126Z,27.97
2022-08-26T11:50:17.108Z,28.06
2022-08-26T11:52:54.592Z,28.06
2022-08-26T11:55:28.317Z,28.06
2022-08-26T11:58:04.711Z,28.10
2022-08-26T12:00:50.753Z,28.13
2022-08-26T12:03:26.791Z,28.15
2022-08-26T12:06:00.800Z,28.17
2022-08-26T12:08:35.174Z,28.15
2022-08-26T12:11:10.069Z,28.13
2022-08-26T12:13:42.928Z,28.17
2022-08-26T12:16:25.629Z,28.23
2022-08-26T12:18:58.526Z,28.22
2022-08-26T12:21:35.121Z,28.30
2022-08-26T12:24:07.880Z,28.33
2022-08-26T12:26:40.694Z,28.36
2022-08-26T12:29:27.163Z,28.41
2022-08-26T12:32:09.660Z,28.42
2022-08-26T12:34:43.486Z,28.41
2022-08-26T12:37:18.916Z,28.39
2022-08-26T12:39:51.637Z,28.39
2022-08-26T12:42:41.345Z,28.39
2022-08-26T12:45:25.745Z,28.32
2022-08-26T12:48:01.402Z,28.36
2022-08-26T12:50:36.114Z,28.35
2022-08-26T12:53:18.509Z,28.32
2022-08-26T12:55:54.065Z,28.33
2022-08-26T12:58:30.046Z,28.34
2022-08-26T13:01:22.305Z,28.32
2022-08-26T13:03:54.960Z,28.33
2022-08-26T13:06:30.071Z,28.30
2022-08-26T13:09:25.503Z,28.28
2022-08-26T13:11:58.860Z,28.26
2022-08-26T13:14:31.364Z,28.26
2022-08-26T13:17:04.106Z,28.24
2022-08-26T13:19:36.689Z,28.24
2022-08-26T13:22:12.541Z,28.26
2022-08-26T13:24:46.436Z,28.28
2022-08-26T13:27:20.728Z,28.33
2022-08-26T13:29:53.818Z,28.36
2022-08-26T13:32:27.533Z,28.38
2022-08-26T13:35:00.321Z,28.40
2022-08-26T13:37:38.270Z,28.42
2022-08-26T13:40:15.450Z,28.26
2022-08-26T13:42:49.756Z,28.44
2022-08-26T13:45:22.683Z,28.41
2022-08-26T13:47:55.215Z,28.38
2022-08-26T13:50:27.833Z,28.47
2022-08-26T13:53:00.562Z,28.48
2022-08-26T13:55:34.366Z,28.51
2022-08-26T13:58:07.003Z,28.52
2022-08-26T14:00:40.403Z,28.53
2022-08-26T14:03:13.633Z,28.51
2022-08-26T14:05:46.080Z,28.53
2022-08-26T14:08:18.808Z,28.53
2022-08-26T14:10:52.748Z,28.53
2022-08-26T14:13:25.491Z,28.46
2022-08-26T14:16:01.492Z,28.52
2022-08-26T14:18:41.055Z,28.51
2022-08-26T14:21:14.809Z,28.45
2022-08-26T14:23:47.361Z,28.47
2022-08-26T14:26:29.393Z,28.47
2022-08-26T14:29:04.124Z,28.48
2022-08-26T14:31:37.920Z,28.53
2022-08-26T14:34:12.768Z,28.53
2022-08-26T14:36:45.119Z,28.55
2022-08-26T14:39:17.563Z,28.54
2022-08-26T14:41:55.326Z,28.55
2022-08-26T14:44:30.712Z,28.53
2022-08-26T14:47:06.603Z,28.56
2022-08-26T14:49:38.920Z,28.57
2022-08-26T14:52:11.414Z,28.56
2022-08-26T14:54:44.087Z,28.54
2022-08-26T14:57:18.717Z,28.53
2022-08-26T14:59:51.164Z,28.45
2022-08-26T15:02:32.412Z,28.46
2022-08-26T15:05:09.960Z,28.43
2022-08-26T15:07:45.687Z,28.34
2022-08-26T15:10:19.031Z,28.29
2022-08-26T15:12:55.526Z,28.25
2022-08-26T15:15:30.009Z,28.20
2022-08-26T15:18:02.446Z,28.17
2022-08-26T15:20:34.934Z,28.10
2022-08-26T15:23:07.800Z,28.01
2022-08-26T15:25:43.258Z,27.95
2022-08-26T15:28:17.176Z,27.88
2022-08-26T15:30:50.171Z,27.80
2022-08-26T15:33:22.769Z,27.72
2022-08-26T15:35:55.945Z,27.63
2022-08-26T15:38:30.132Z,27.56
2022-08-26T15:41:04.400Z,27.49
2022-08-26T15:43:38.606Z,27.43
2022-08-26T15:46:12.287Z,27.35
2022-08-26T15:48:45.100Z,27.23
2022-08-26T15:51:22.949Z,27.22
2022-08-26T15:53:56.611Z,27.13
2022-08-26T15:56:31.141Z,27.05
2022-08-26T15:59:07.601Z,26.96
2022-08-26T16:01:40.721Z,26.91
2022-08-26T16:04:15.370Z,26.82
2022-08-26T16:06:51.648Z,26.70
2022-08-26T16:09:27.236Z,26.62
2022-08-26T16:12:03.182Z,26.50
2022-08-26T16:14:37.173Z,26.39
2022-08-26T16:17:09.680Z,26.27
2022-08-26T16:19:42.661Z,26.15
2022-08-26T16:22:15.062Z,26.05
2022-08-26T16:24:47.699Z,25.94
2022-08-26T16:27:20.889Z,25.85
2022-08-26T16:29:57.114Z,25.63
2022-08-26T16:32:31.253Z,25.57
2022-08-26T16:35:07.565Z,25.45
2022-08-26T16:37:40.379Z,25.35
2022-08-26T16:40:12.937Z,25.23
2022-08-26T16:42:45.523Z,25.10
2022-08-26T16:45:19.650Z,24.96
2022-08-26T16:47:52.658Z,24.85
2022-08-26T16:50:25.246Z,24.75
2022-08-26T16:52:57.617Z,24.66
2022-08-26T16:55:30.209Z,24.60
2022-08-26T16:58:02.842Z,24.55
2022-08-26T17:00:37.391Z,24.49
2022-08-26T17:03:10.103Z,24.39
2022-08-26T17:05:42.850Z,24.40
2022-08-26T17:08:27.446Z,24.32
2022-08-26T17:11:01.841Z,24.20
2022-08-26T17:13:36.191Z,24.08
2022-08-26T17:16:12.684Z,23.99
2022-08-26T17:18:45.201Z,23.89
2022-08-26T17:21:18.075Z,23.82
2022-08-26T17:23:50.659Z,23.74
2022-08-26T17:26:23.410Z,23.66
2022-08-26T17:28:56.065Z,23.60
2022-08-26T17:31:30.078Z,23.57
2022-08-26T17:34:02.944Z,23.52
2022-08-26T17:36:35.748Z,23.46
2022-08-26T17:39:08.645Z,23.41
2022-08-26T17:41:43.235Z,23.37
2022-08-26T17:44:15.956Z,23.30
2022-08-26T17:46:50.048Z,23.24
2022-08-26T17:49:22.693Z,23.15
2022-08-26T17:51:57.863Z,23.09
2022-08-26T17:54:31.693Z,23.00
2022-08-26T17:57:05.303Z,22.98
2022-08-26T17:59:43.136Z,22.92
2022-08-26T18:02:17.457Z,22.79
2022-08-26T18:04:50.262Z,22.83
2022-08-26T18:07:22.931Z,22.75
2022-08-26T18:09:55.502Z,22.65
2022-08-26T18:12:28.285Z,22.57
2022-08-26T18:15:01.712Z,22.52
2022-08-26T18:17:39.214Z,22.46
2022-08-26T18:20:14.356Z,22.42
2022-08-26T18:22:48.020Z,22.40
2022-08-26T18:25:20.920Z,22.35
2022-08-26T18:27:53.669Z,22.27
2022-08-26T18:30:27.012Z,22.22
2022-08-26T18:33:01.057Z,22.17
2022-08-26T18:35:37.776Z,22.11
2022-08-26T18:38:11.849Z,22.06
2022-08-26T18:40:45.629Z,22.01
2022-08-26T18:43:18.077Z,21.96
2022-08-26T18:46:00.537Z,21.91
2022-08-26T18:48:39.412Z,21.87
2022-08-26T18:51:17.381Z,21.82
2022-08-26T18:53:50.624Z,21.79
2022-08-26T18:56:24.627Z,21.76
2022-08-26T18:58:59.078Z,21.73
2022-08-26T19:01:38.046Z,21.66
2022-08-26T19:04:15.467Z,21.65
2022-08-26T19:06:50.837Z,21.57
2022-08-26T19:09:26.382Z,21.56
2022-08-26T19:12:00.973Z,21.47
2022-08-26T19:14:35.925Z,21.45
2022-08-26T19:17:09.370Z,21.45
2022-08-26T19:19:43.334Z,21.43
2022-08-26T19:22:19.921Z,21.39
2022-08-26T19:24:52.435Z,21.33
2022-08-26T19:27:25.000Z,21.30
2022-08-26T19:29:57.777Z,21.26
2022-08-26T19:32:30.599Z,21.21
2022-08-26T19:35:06.120Z,21.14
2022-08-26T19:37:38.602Z,21.07
2022-08-26T19:40:11.952Z,20.97
2022-08-26T19:42:44.507Z,20.92
2022-08-26T19:45:25.143Z,20.92
2022-08-26T19:47:58.673Z,20.87
2022-08-26T19:50:34.695Z,20.86
2022-08-26T19:53:07.102Z,20.85
2022-08-26T19:55:39.810Z,20.82
2022-08-26T19:58:12.317Z,20.75
2022-08-26T20:00:44.941Z,20.71
2022-08-26T20:03:17.485Z,20.67
2022-08-26T20:05:51.312Z,20.62
2022-08-26T20:08:23.820Z,20.57
2022-08-26T20:10:57.828Z,20.49
2022-08-26T20:13:30.519Z,20.39
2022-08-26T20:16:03.369Z,20.37
2022-08-26T20:18:54.281Z,20.35
2022-08-26T20:21:29.635Z,20.34
2022-08-26T20:24:04.639Z,20.33
2022-08-26T20:26:38.755Z,20.33
2022-08-26T20:29:13.458Z,20.32
2022-08-26T20:31:46.637Z,20.29
2022-08-26T20:34:19.621Z,20.24
2022-08-26T20:36:53.554Z,20.20
2022-08-26T20:39:29.659Z,20.13
2022-08-26T20:42:03.296Z,20.09
2022-08-26T20:44:35.817Z,20.04
2022-08-26T20:47:09.225Z,19.97
2022-08-26T20:49:41.682Z,19.89
2022-08-26T20:52:16.370Z,19.85
2022-08-26T20:54:48.814Z,19.82
2022-08-26T20:57:22.431Z,19.79
2022-08-26T20:59:54.842Z,19.80
2022-08-26T21:02:28.326Z,19.75
2022-08-26T21:05:00.801Z,19.71
2022-08-26T21:07:34.753Z,19.67
2022-08-26T21:10:08.455Z,19.62
2022-08-26T21:12:41.216Z,19.59
2022-08-26T21:15:13.861Z,19.56
2022-08-26T21:17:46.278Z,19.54
2022-08-26T21:20:18.822Z,19.52
2022-08-26T21:22:52.930Z,19.50
2022-08-26T21:25:25.973Z,19.48
2022-08-26T21:27:58.511Z,19.43
2022-08-26T21:30:30.983Z,19.43
2022-08-26T21:33:03.574Z,19.39
2022-08-26T21:35:36.043Z,19.34
2022-08-26T21:38:10.094Z,19.19
2022-08-26T21:40:42.714Z,19.26
2022-08-26T21:43:25.994Z,19.21
2022-08-26T21:46:14.706Z,19.19
2022-08-26T21:48:50.901Z,19.16
2022-08-26T21:51:26.425Z,19.21
2022-08-26T21:54:01.937Z,19.18
2022-08-26T21:56:39.654Z,19.12
2022-08-26T21:59:13.367Z,19.10
2022-08-26T22:01:46.093Z,19.07
2022-08-26T22:04:18.725Z,19.04
2022-08-26T22:06:52.616Z,19.00
2022-08-26T22:09:28.098Z,19.00
2022-08-26T22:12:01.212Z,18.92
2022-08-26T22:14:34.326Z,18.95
2022-08-26T22:17:07.158Z,18.90
2022-08-26T22:19:45.597Z,18.94
2022-08-26T22:22:18.933Z,18.90
2022-08-26T22:24:52.838Z,18.90
2022-08-26T22:27:25.300Z,18.87
2022-08-26T22:29:57.931Z,18.84
2022-08-26T22:32:30.411Z,18.79
2022-08-26T22:35:03.064Z,18.80
2022-08-26T22:37:55.535Z,18.76
2022-08-26T22:40:31.133Z,18.73
2022-08-26T22:43:04.628Z,18.69
2022-08-26T22:45:42.196Z,18.62
2022-08-26T22:48:16.557Z,18.63
2022-08-26T22:50:50.350Z,18.58
2022-08-26T22:53:22.774Z,18.54
2022-08-26T22:55:56.839Z,18.50
2022-08-26T22:58:30.903Z,18.47
2022-08-26T23:01:05.847Z,18.46
2022-08-26T23:03:38.724Z,18.44
2022-08-26T23:06:11.456Z,18.40
2022-08-26T23:08:46.440Z,18.36
2022-08-26T23:11:20.418Z,18.33
2022-08-26T23:13:52.965Z,18.32
2022-08-26T23:16:25.664Z,18.27
2022-08-26T23:18:58.150Z,18.24
2022-08-26T23:21:30.858Z,18.22
2022-08-26T23:24:03.923Z,18.19
2022-08-26T23:26:39.405Z,18.21
2022-08-26T23:29:13.664Z,18.21
2022-08-26T23:31:46.603Z,18.19
2022-08-26T23:34:37.913Z,18.16
2022-08-26T23:37:10.521Z,18.14
2022-08-26T23:39:42.952Z,18.09
2022-08-26T23:42:16.924Z,18.03
2022-08-26T23:44:49.477Z,17.98
2022-08-26T23:47:22.690Z,17.93
2022-08-26T23:49:55.201Z,17.88
2022-08-26T23:52:47.007Z,17.85
2022-08-26T23:55:19.721Z,17.79
2022-08-26T23:57:53.926Z,17.78
